Time;durP1;ratioP1;P1;durP2;ratioP2;P2;SDS_P1;SDS_P2;PMS_P1;PMS_P2;Temp;Humidity;BMP_temperature;BMP_pressure;BME280_temperature;BME280_humidity;BME280_pressure;Samples;Min_cycle;Max_cycle;Signal;HPM_P1;HPM_P2
2023/04/01 00:01:25;;;;;;;3.17;1.20;;;;;;;5.25;100.00;92786.66;5043632;28;20048;-65
2023/04/01 00:03:53;;;;;;;3.08;1.00;;;;;;;5.20;100.00;92798.75;5041891;28;20142;-65
2023/04/01 00:06:20;;;;;;;2.90;1.23;;;;;;;5.22;100.00;92792.13;5039494;28;20091;-67
2023/04/01 00:08:47;;;;;;;2.85;1.08;;;;;;;5.22;100.00;92786.69;5040582;28;20483;-64
2023/04/01 00:11:15;;;;;;;2.38;0.95;;;;;;;5.24;100.00;92793.25;5040179;28;20033;-63
2023/04/01 00:13:42;;;;;;;2.13;0.70;;;;;;;5.25;100.00;92797.53;5041220;28;20041;-66
2023/04/01 00:16:09;;;;;;;2.55;1.30;;;;;;;5.28;100.00;92790.50;5036528;28;20045;-67
2023/04/01 00:18:48;;;;;;;2.20;0.90;;;;;;;5.22;100.00;92786.69;5038164;28;20041;-66
2023/04/01 00:21:15;;;;;;;2.17;0.80;;;;;;;5.11;100.00;92784.88;5035507;28;20044;-70
2023/04/01 00:23:42;;;;;;;2.55;1.08;;;;;;;5.11;100.00;92781.38;5037598;28;20053;-66
2023/04/01 00:26:09;;;;;;;2.47;1.13;;;;;;;5.15;100.00;92782.09;5039984;28;20047;-69
2023/04/01 00:28:36;;;;;;;5.70;2.78;;;;;;;5.14;100.00;92786.00;5041538;28;20106;-70
2023/04/01 00:31:07;;;;;;;2.38;1.10;;;;;;;5.04;100.00;92776.81;5040539;28;20053;-68
2023/04/01 00:33:35;;;;;;;2.05;1.00;;;;;;;5.05;100.00;92772.13;5054783;28;20044;-69
2023/04/01 00:36:09;;;;;;;2.00;1.10;;;;;;;5.00;100.00;92768.69;5039239;28;20090;-66
2023/04/01 00:38:37;;;;;;;1.70;1.03;;;;;;;5.07;100.00;92775.22;5040074;28;21596;-65
2023/04/01 00:41:05;;;;;;;1.98;1.00;;;;;;;5.00;100.00;92776.09;5038954;28;20044;-66
2023/04/01 00:43:32;;;;;;;2.47;1.15;;;;;;;5.09;100.00;92783.72;5037971;28;20053;-65
2023/04/01 00:45:59;;;;;;;2.03;0.80;;;;;;;4.99;100.00;92780.75;5038971;28;20063;-68
2023/04/01 00:48:31;;;;;;;2.83;1.30;;;;;;;5.00;100.00;92785.00;5039991;28;20033;-66
2023/04/01 00:51:06;;;;;;;1.90;1.00;;;;;;;5.00;100.00;92781.53;5036362;28;20034;-65
2023/04/01 00:53:36;;;;;;;3.13;1.05;;;;;;;4.92;100.00;92782.78;5035169;28;20466;-65
2023/04/01 00:56:07;;;;;;;3.33;1.55;;;;;;;4.97;100.00;92782.31;5035884;28;20045;-68
2023/04/01 00:58:40;;;;;;;2.33;0.90;;;;;;;4.96;100.00;92787.00;5042332;28;21525;-65
2023/04/01 01:01:08;;;;;;;1.48;0.70;;;;;;;4.85;100.00;92778.22;5042657;28;20044;-62
2023/04/01 01:03:35;;;;;;;1.80;1.00;;;;;;;4.84;100.00;92784.06;5041337;28;21506;-63
2023/04/01 01:06:10;;;;;;;1.80;0.70;;;;;;;4.88;100.00;92780.13;5038558;28;20051;-63
2023/04/01 01:09:03;;;;;;;2.38;1.10;;;;;;;4.91;100.00;92779.31;5038488;28;20795;-63
2023/04/01 01:11:39;;;;;;;2.35;1.13;;;;;;;4.91;100.00;92781.25;5054760;28;20045;-63
2023/04/01 01:14:27;;;;;;;1.73;0.98;;;;;;;4.76;100.00;92777.94;5036948;28;20493;-65
2023/04/01 01:17:02;;;;;;;2.03;1.00;;;;;;;4.76;100.00;92773.25;5040454;28;20037;-68
2023/04/01 01:19:41;;;;;;;1.40;0.70;;;;;;;4.78;100.00;92784.50;5038604;28;20042;-66
2023/04/01 01:22:29;;;;;;;1.50;0.70;;;;;;;4.74;100.00;92767.47;5034556;28;20363;-64
2023/04/01 01:25:18;;;;;;;1.80;0.90;;;;;;;4.65;100.00;92780.00;5034209;28;20436;-67
2023/04/01 01:27:52;;;;;;;1.65;1.02;;;;;;;4.63;100.00;92768.75;5041727;28;20106;-64
2023/04/01 01:30:35;;;;;;;1.40;0.60;;;;;;;4.60;100.00;92773.06;5043180;28;20094;-65
2023/04/01 01:33:05;;;;;;;1.73;0.95;;;;;;;4.58;100.00;92768.03;5043520;28;20044;-64
2023/04/01 01:35:41;;;;;;;1.50;0.70;;;;;;;4.51;100.00;92772.78;5054382;28;20045;-63
2023/04/01 01:38:15;;;;;;;13.20;6.30;;;;;;;4.55;100.00;92774.28;5054020;28;20385;-65
2023/04/01 01:40:45;;;;;;;1.70;1.00;;;;;;;4.41;100.00;92769.00;5071766;28;20941;-64
2023/04/01 01:43:17;;;;;;;2.33;0.73;;;;;;;4.26;100.00;92759.47;5071634;28;20090;-65
2023/04/01 01:45:48;;;;;;;1.60;0.70;;;;;;;4.32;100.00;92761.31;5071099;28;20664;-64
2023/04/01 01:48:17;;;;;;;1.50;0.60;;;;;;;4.32;100.00;92755.88;5071647;28;20041;-67
2023/04/01 01:50:46;;;;;;;1.52;0.73;;;;;;;4.34;100.00;92744.63;5064233;28;20029;-66
2023/04/01 01:53:13;;;;;;;2.53;1.08;;;;;;;4.25;100.00;92758.69;5051570;28;20041;-65
2023/04/01 01:55:44;;;;;;;1.67;0.60;;;;;;;4.25;100.00;92755.97;5051831;28;20044;-64
2023/04/01 01:58:19;;;;;;;1.60;0.77;;;;;;;4.27;100.00;92744.72;5051684;28;20047;-64
2023/04/01 02:01:08;;;;;;;1.80;0.80;;;;;;;4.36;100.00;92747.72;5051908;28;20497;-64
2023/04/01 02:03:37;;;;;;;2.20;1.10;;;;;;;4.36;100.00;92751.19;5050604;28;20397;-64
2023/04/01 02:06:07;;;;;;;1.95;0.80;;;;;;;4.40;100.00;92768.22;5051868;28;20045;-64
2023/04/01 02:08:40;;;;;;;2.63;1.00;;;;;;;4.40;100.00;92753.88;5050636;28;21137;-67
2023/04/01 02:11:10;;;;;;;2.45;0.85;;;;;;;4.37;100.00;92762.84;5051659;28;20029;-64
2023/04/01 02:14:01;;;;;;;3.40;1.10;;;;;;;4.39;100.00;92755.81;5050662;28;20477;-68
2023/04/01 02:16:34;;;;;;;1.98;0.95;;;;;;;4.43;100.00;92763.94;5050778;28;21625;-64
2023/04/01 02:19:07;;;;;;;3.33;1.00;;;;;;;4.45;100.00;92758.09;5051615;28;20053;-64
2023/04/01 02:21:35;;;;;;;3.20;1.23;;;;;;;4.50;100.00;92758.41;5050192;28;20859;-65
2023/04/01 02:24:07;;;;;;;3.90;1.00;;;;;;;4.47;100.00;92758.47;5051503;28;20193;-66
2023/04/01 02:26:35;;;;;;;2.53;1.10;;;;;;;4.40;100.00;92762.78;5049974;28;20612;-63
2023/04/01 02:29:05;;;;;;;3.58;1.13;;;;;;;4.46;100.00;92752.25;5051317;28;20128;-64
2023/04/01 02:31:32;;;;;;;3.10;1.30;;;;;;;4.50;100.00;92761.13;5050775;28;20419;-63
2023/04/01 02:33:59;;;;;;;3.10;1.10;;;;;;;4.51;100.00;92765.41;5051235;28;20032;-64
2023/04/01 02:36:26;;;;;;;2.63;1.17;;;;;;;4.43;100.00;92761.22;5049184;28;20037;-64
2023/04/01 02:38:55;;;;;;;3.05;1.10;;;;;;;4.48;100.00;92747.19;5050968;28;20084;-67
2023/04/01 02:41:22;;;;;;;3.10;1.02;;;;;;;4.52;100.00;92749.88;5049178;28;20412;-65
2023/04/01 02:43:49;;;;;;;3.42;1.02;;;;;;;4.57;100.00;92758.34;5050963;28;20055;-67
2023/04/01 02:46:15;;;;;;;3.10;1.33;;;;;;;4.59;100.00;92757.94;5049306;28;20098;-64
2023/04/01 02:48:42;;;;;;;2.25;0.73;;;;;;;4.58;100.00;92759.88;5050801;28;20029;-63
2023/04/01 02:51:09;;;;;;;2.45;0.82;;;;;;;4.58;100.00;92745.53;5061452;28;20033;-64
2023/04/01 02:53:35;;;;;;;2.70;0.90;;;;;;;4.59;100.00;92750.56;5070500;28;20083;-64
2023/04/01 02:56:02;;;;;;;2.88;1.10;;;;;;;4.55;100.00;92746.34;5070930;28;20037;-64
2023/04/01 02:58:29;;;;;;;3.00;1.17;;;;;;;4.62;100.00;92745.50;5070012;28;20039;-67
2023/04/01 03:00:56;;;;;;;2.03;0.80;;;;;;;4.58;100.00;92757.16;5070740;28;20048;-64
2023/04/01 03:03:22;;;;;;;2.15;0.82;;;;;;;4.62;100.00;92750.94;5069856;28;20040;-64
2023/04/01 03:05:49;;;;;;;2.38;1.02;;;;;;;4.68;100.00;92752.00;5070547;28;20040;-64
2023/04/01 03:08:16;;;;;;;2.15;1.08;;;;;;;4.66;100.00;92752.41;5069647;28;20067;-67
2023/04/01 03:10:42;;;;;;;2.67;0.77;;;;;;;4.77;100.00;92758.50;5070138;28;20033;-66
2023/04/01 03:13:09;;;;;;;1.85;0.95;;;;;;;4.74;100.00;92761.25;5069954;28;20043;-64
2023/04/01 03:15:36;;;;;;;2.10;0.65;;;;;;;4.73;100.00;92757.78;5070025;28;20032;-63
2023/04/01 03:18:03;;;;;;;1.70;0.82;;;;;;;4.65;100.00;92750.09;5070397;28;20040;-64
2023/04/01 03:20:30;;;;;;;2.35;1.05;;;;;;;4.59;100.00;92745.13;5069548;28;20040;-67
2023/04/01 03:22:57;;;;;;;2.00;1.13;;;;;;;4.61;100.00;92758.31;5070027;28;20108;-66
2023/04/01 03:25:24;;;;;;;2.20;0.95;;;;;;;4.55;100.00;92757.97;5069208;28;20042;-66
2023/04/01 03:27:51;;;;;;;3.15;1.10;;;;;;;4.48;100.00;92768.91;5052598;28;20047;-63
2023/04/01 03:30:17;;;;;;;2.25;0.70;;;;;;;4.44;100.00;92767.41;5069353;28;20070;-63
2023/04/01 03:32:44;;;;;;;2.97;1.17;;;;;;;4.41;100.00;92766.28;5069658;28;20040;-66
2023/04/01 03:35:11;;;;;;;1.97;1.07;;;;;;;4.45;100.00;92766.22;5069509;28;20038;-63
2023/04/01 03:37:38;;;;;;;3.20;1.02;;;;;;;4.50;100.00;92774.72;5069776;28;20040;-63
2023/04/01 03:40:05;;;;;;;2.45;1.10;;;;;;;4.42;100.00;92770.53;5030222;28;20059;-67
2023/04/01 03:42:32;;;;;;;1.83;1.00;;;;;;;4.41;100.00;92771.72;5029334;28;20120;-65
2023/04/01 03:44:59;;;;;;;2.55;0.90;;;;;;;4.40;100.00;92768.22;5029876;28;20045;-63
2023/04/01 03:47:25;;;;;;;1.90;0.90;;;;;;;4.48;100.00;92771.63;5029198;28;20033;-63
2023/04/01 03:49:52;;;;;;;1.60;0.70;;;;;;;4.41;100.00;92766.28;5030888;28;20045;-67
2023/04/01 03:52:19;;;;;;;2.67;0.80;;;;;;;4.40;100.00;92767.44;5069177;28;20044;-64
2023/04/01 03:54:45;;;;;;;1.60;0.88;;;;;;;4.38;100.00;92776.00;5069501;28;20041;-64
2023/04/01 03:57:12;;;;;;;2.15;1.20;;;;;;;4.31;100.00;92765.22;5069227;28;20045;-63
2023/04/01 03:59:39;;;;;;;2.27;1.00;;;;;;;4.37;100.00;92760.88;5069326;28;20071;-63
2023/04/01 04:02:06;;;;;;;1.60;0.75;;;;;;;4.39;100.00;92763.22;5069563;28;20051;-65
2023/04/01 04:04:33;;;;;;;1.55;0.70;;;;;;;4.39;100.00;92758.53;5068416;28;20808;-65
2023/04/01 04:07:00;;;;;;;2.47;1.08;;;;;;;4.55;100.00;92762.66;5069602;28;20089;-67
2023/04/01 04:09:29;;;;;;;2.05;1.08;;;;;;;4.50;100.00;92747.53;5068639;28;20363;-63
2023/04/01 04:11:56;;;;;;;2.33;0.90;;;;;;;4.48;100.00;92757.28;5069329;28;20070;-67
2023/04/01 04:14:23;;;;;;;2.00;1.00;;;;;;;4.49;100.00;92756.13;5068602;28;20036;-63
2023/04/01 04:16:50;;;;;;;4.20;1.25;;;;;;;4.55;100.00;92749.06;5069167;28;20102;-63
2023/04/01 04:19:16;;;;;;;2.60;0.90;;;;;;;4.62;100.00;92759.06;5068815;28;20439;-67
2023/04/01 04:21:43;;;;;;;2.10;0.93;;;;;;;4.60;100.00;92754.81;5068797;28;20089;-65
2023/04/01 04:24:10;;;;;;;3.17;0.90;;;;;;;4.62;100.00;92750.94;5068953;28;20047;-63
2023/04/01 04:26:36;;;;;;;3.63;1.00;;;;;;;4.66;100.00;92749.69;5068641;28;20085;-63
2023/04/01 04:29:03;;;;;;;3.10;0.95;;;;;;;4.68;100.00;92752.78;5069151;28;20040;-63
2023/04/01 04:31:30;;;;;;;4.13;1.13;;;;;;;4.75;100.00;92760.09;5068019;28;20067;-64
2023/04/01 04:33:59;;;;;;;3.65;1.05;;;;;;;4.71;100.00;92754.69;5069040;28;20040;-64
2023/04/01 04:36:26;;;;;;;3.83;1.13;;;;;;;4.70;100.00;92757.81;5068529;28;20040;-68
2023/04/01 04:38:53;;;;;;;4.03;1.42;;;;;;;4.73;100.00;92755.06;5052729;28;20389;-65
2023/04/01 04:41:21;;;;;;;3.25;0.98;;;;;;;4.70;100.00;92747.72;5048856;28;20033;-65
2023/04/01 04:43:53;;;;;;;2.80;1.13;;;;;;;4.73;100.00;92744.19;5048305;28;20041;-66
2023/04/01 04:46:21;;;;;;;2.63;1.08;;;;;;;4.73;100.00;92740.72;5048376;28;20041;-64
2023/04/01 04:48:48;;;;;;;5.03;1.30;;;;;;;4.68;100.00;92736.47;5048265;28;20037;-64
2023/04/01 04:51:17;;;;;;;2.17;0.70;;;;;;;4.63;100.00;92752.44;5060388;28;20435;-65
2023/04/01 04:53:44;;;;;;;3.33;1.30;;;;;;;4.63;100.00;92744.28;5068646;28;20036;-67
2023/04/01 04:56:11;;;;;;;3.45;1.00;;;;;;;4.65;100.00;92750.09;5067110;28;20444;-63
2023/04/01 04:58:39;;;;;;;2.10;1.10;;;;;;;4.61;100.00;92750.16;5068629;28;20534;-64
2023/04/01 05:01:10;;;;;;;3.33;1.33;;;;;;;4.62;100.00;92737.34;5052510;28;20055;-63
2023/04/01 05:03:38;;;;;;;2.25;0.90;;;;;;;4.56;100.00;92731.56;5028724;28;20033;-63
2023/04/01 05:06:06;;;;;;;1.75;0.95;;;;;;;4.52;100.00;92733.56;5032867;28;20087;-63
2023/04/01 05:08:33;;;;;;;2.78;1.00;;;;;;;4.50;100.00;92741.34;5047513;28;20872;-64
2023/04/01 05:11:01;;;;;;;1.98;1.17;;;;;;;4.42;100.00;92739.88;5032711;28;20505;-63
2023/04/01 05:13:28;;;;;;;2.10;0.87;;;;;;;4.39;100.00;92750.41;5032321;28;20394;-63
2023/04/01 05:15:55;;;;;;;2.10;0.82;;;;;;;4.32;100.00;92742.31;5032695;28;20118;-64
2023/04/01 05:18:22;;;;;;;2.53;1.13;;;;;;;4.26;100.00;92741.22;5032120;28;20644;-66
2023/04/01 05:20:51;;;;;;;1.80;1.00;;;;;;;4.38;100.00;92754.28;5032206;28;20099;-64
2023/04/01 05:23:20;;;;;;;2.05;1.33;;;;;;;4.42;100.00;92754.22;5032251;28;20401;-64
2023/04/01 05:25:49;;;;;;;1.87;0.87;;;;;;;4.46;100.00;92746.81;5032286;28;20052;-66
2023/04/01 05:28:17;;;;;;;2.45;0.90;;;;;;;4.51;100.00;92742.91;5032051;28;20037;-65
2023/04/01 05:30:44;;;;;;;3.15;1.30;;;;;;;4.48;100.00;92739.03;5030967;28;20041;-65
2023/04/01 05:33:12;;;;;;;2.00;1.02;;;;;;;4.51;100.00;92746.38;5031992;28;20049;-65
2023/04/01 05:35:40;;;;;;;2.63;0.90;;;;;;;4.71;100.00;92743.81;5030960;28;20034;-64
2023/04/01 05:38:07;;;;;;;1.87;0.87;;;;;;;4.67;100.00;92753.97;5040045;28;20040;-65
2023/04/01 05:40:34;;;;;;;2.42;0.90;;;;;;;4.68;100.00;92750.06;5070935;28;20817;-67
2023/04/01 05:43:00;;;;;;;2.15;1.13;;;;;;;4.86;100.00;92741.69;5072094;28;20037;-64
2023/04/01 05:45:27;;;;;;;1.70;0.82;;;;;;;4.71;100.00;92748.47;5070176;28;20040;-64
2023/04/01 05:47:54;;;;;;;1.90;1.00;;;;;;;4.87;100.00;92754.13;5071481;28;20051;-64
2023/04/01 05:50:21;;;;;;;1.70;0.80;;;;;;;4.91;100.00;92754.06;5066701;28;20401;-64
2023/04/01 05:52:48;;;;;;;2.47;0.85;;;;;;;4.88;100.00;92750.22;5051521;28;20031;-66
2023/04/01 05:55:14;;;;;;;2.72;0.95;;;;;;;4.98;100.00;92753.97;5051406;28;20045;-65
2023/04/01 05:57:41;;;;;;;3.28;1.35;;;;;;;5.09;100.00;92745.66;5051648;28;20370;-64
2023/04/01 06:00:08;;;;;;;3.65;1.20;;;;;;;5.28;100.00;92758.63;5051315;28;20378;-64
2023/04/01 06:02:37;;;;;;;1.80;0.90;;;;;;;5.19;100.00;92750.19;5051647;28;20089;-65
2023/04/01 06:05:22;;;;;;;2.60;1.00;;;;;;;5.23;100.00;92744.69;5051966;28;20466;-64
2023/04/01 06:07:55;;;;;;;2.65;1.33;;;;;;;5.24;100.00;92744.31;5050624;28;20815;-64
2023/04/01 06:10:35;;;;;;;2.80;1.30;;;;;;;5.59;100.00;92747.66;5050980;28;20049;-64
2023/04/01 06:13:12;;;;;;;5.50;1.40;;;;;;;5.77;100.00;92750.13;5051657;28;20185;-68
2023/04/01 06:15:48;;;;;;;4.27;1.93;;;;;;;5.64;100.00;92746.44;5050318;28;20829;-64
2023/04/01 06:18:32;;;;;;;3.83;1.40;;;;;;;5.72;100.00;92748.63;5050914;28;20041;-64
2023/04/01 06:21:01;;;;;;;2.00;0.80;;;;;;;5.72;100.00;92745.16;5051236;28;20048;-65
2023/04/01 06:23:52;;;;;;;10.57;3.78;;;;;;;5.73;100.00;92743.97;5051045;28;20045;-65
2023/04/01 06:26:23;;;;;;;2.50;1.45;;;;;;;5.80;100.00;92749.31;5050944;28;20041;-68
2023/04/01 06:28:50;;;;;;;3.10;1.10;;;;;;;5.78;100.00;92754.38;5051081;28;20039;-64
2023/04/01 06:31:44;;;;;;;3.55;1.50;;;;;;;5.71;100.00;92751.78;5049500;28;20488;-65
2023/04/01 06:34:42;;;;;;;3.30;1.65;;;;;;;5.88;100.00;92745.28;5050723;28;20033;-64
2023/04/01 06:37:30;;;;;;;3.15;1.40;;;;;;;5.89;100.00;92746.81;5050744;28;20047;-63
2023/04/01 06:39:57;;;;;;;3.30;1.85;;;;;;;5.84;100.00;92736.41;5069746;28;20032;-66
2023/04/01 06:42:50;;;;;;;2.90;1.00;;;;;;;5.97;100.00;92736.59;5070820;28;20050;-64
2023/04/01 06:45:44;;;;;;;3.47;1.05;;;;;;;5.95;100.00;92738.97;5070547;28;20398;-68
2023/04/01 06:48:49;;;;;;;2.50;1.00;;;;;;;6.07;100.00;92740.31;5070675;28;20097;-68
2023/04/01 06:51:51;;;;;;;5.88;3.17;;;;;;;5.93;100.00;92730.41;5057777;28;20144;-65
2023/04/01 06:54:18;;;;;;;3.42;1.75;;;;;;;5.94;100.00;92729.25;5049030;28;20043;-64
2023/04/01 06:56:50;;;;;;;9.00;4.17;;;;;;;5.96;100.00;92730.38;5049987;28;20037;-65
2023/04/01 06:59:20;;;;;;;14.23;5.78;;;;;;;5.85;100.00;92727.03;5050261;28;20045;-66
2023/04/01 07:02:13;;;;;;;2.20;1.17;;;;;;;5.91;100.00;92730.81;5050649;28;20371;-64
2023/04/01 07:04:46;;;;;;;5.47;3.00;;;;;;;6.05;100.00;92734.53;5049450;28;21581;-63
2023/04/01 07:07:29;;;;;;;16.38;7.78;;;;;;;6.13;100.00;92723.09;5049977;28;20041;-66
2023/04/01 07:09:59;;;;;;;6.53;3.10;;;;;;;6.02;100.00;92729.91;5050200;28;20144;-63
2023/04/01 07:12:32;;;;;;;21.65;10.63;;;;;;;5.88;100.00;92742.56;5050080;28;20039;-64
2023/04/01 07:15:04;;;;;;;9.00;4.70;;;;;;;5.98;100.00;92735.44;5049942;28;20041;-67
2023/04/01 07:17:35;;;;;;;7.82;3.47;;;;;;;5.93;100.00;92736.63;5049663;28;20041;-64
2023/04/01 07:20:17;;;;;;;22.92;12.25;;;;;;;6.14;100.00;92732.81;5050206;28;20044;-66
2023/04/01 07:22:47;;;;;;;7.00;3.47;;;;;;;6.08;100.00;92723.56;5048963;28;20606;-65
2023/04/01 07:25:25;;;;;;;7.28;3.58;;;;;;;5.89;100.00;92746.81;5049733;28;20036;-65
2023/04/01 07:27:55;;;;;;;9.80;5.80;;;;;;;6.08;100.00;92755.50;5049264;28;20058;-66
2023/04/01 07:30:24;;;;;;;5.80;3.33;;;;;;;5.83;100.00;92761.31;5045675;28;20519;-67
2023/04/01 07:33:03;;;;;;;9.65;5.25;;;;;;;5.88;100.00;92764.34;5041430;28;20040;-67
2023/04/01 07:35:44;;;;;;;6.00;3.70;;;;;;;5.90;100.00;92759.25;5037493;28;20034;-69
2023/04/01 07:38:25;;;;;;;5.80;3.35;;;;;;;6.05;100.00;92769.94;5041918;28;20445;-67
2023/04/01 07:41:36;;;;;;;6.10;3.05;;;;;;;5.82;100.00;92766.00;5043652;28;20044;-66
2023/04/01 07:44:16;;;;;;;4.75;2.15;;;;;;;5.67;100.00;92762.72;5037710;28;20067;-67
2023/04/01 07:47:05;;;;;;;4.22;2.70;;;;;;;5.77;100.00;92761.00;5036324;28;20071;-67
2023/04/01 07:49:32;;;;;;;6.13;4.13;;;;;;;5.78;100.00;92765.28;5041789;28;20043;-67
2023/04/01 07:52:06;;;;;;;7.82;5.35;;;;;;;5.66;100.00;92769.34;5042178;28;20059;-67
2023/04/01 07:54:46;;;;;;;4.88;2.97;;;;;;;5.80;100.00;92771.09;5041894;28;20045;-67
2023/04/01 07:57:18;;;;;;;8.50;6.03;;;;;;;5.66;100.00;92772.06;5040544;28;20102;-67
2023/04/01 07:59:54;;;;;;;2.90;1.65;;;;;;;5.60;100.00;92782.66;5041407;28;20041;-68
2023/04/01 08:02:30;;;;;;;4.80;2.73;;;;;;;5.75;100.00;92768.81;5040381;28;20038;-67
2023/04/01 08:05:19;;;;;;;4.55;2.58;;;;;;;5.74;100.00;92772.72;5037336;28;20040;-68
2023/04/01 08:08:08;;;;;;;2.78;1.65;;;;;;;5.57;100.00;92774.53;5039602;28;20660;-67
2023/04/01 08:10:47;;;;;;;5.82;3.42;;;;;;;5.72;100.00;92775.09;5041440;28;20834;-67
2023/04/01 08:13:51;;;;;;;5.68;3.40;;;;;;;5.77;100.00;92767.22;5034178;28;20044;-69
2023/04/01 08:16:36;;;;;;;3.10;1.50;;;;;;;5.65;100.00;92775.19;5037997;28;20041;-67
2023/04/01 08:19:24;;;;;;;7.70;3.50;;;;;;;5.78;100.00;92770.72;5039288;28;20056;-67
2023/04/01 08:21:54;;;;;;;3.30;1.48;;;;;;;5.74;100.00;92780.91;5041939;28;21648;-67
2023/04/01 08:24:27;;;;;;;3.70;1.83;;;;;;;5.70;100.00;92783.66;5056239;28;20041;-66
2023/04/01 08:27:16;;;;;;;1.95;1.00;;;;;;;5.52;100.00;92786.66;5040076;28;20505;-66
2023/04/01 08:30:02;;;;;;;4.73;2.93;;;;;;;5.77;100.00;92774.63;5037652;28;20774;-67
2023/04/01 08:32:35;;;;;;;3.00;1.40;;;;;;;5.71;100.00;92770.81;5044474;28;20044;-68
2023/04/01 08:35:25;;;;;;;5.47;3.20;;;;;;;5.68;100.00;92779.81;5049712;28;20062;-69
2023/04/01 08:37:56;;;;;;;3.90;2.70;;;;;;;5.78;100.00;92779.66;5046420;28;21529;-68
2023/04/01 08:40:41;;;;;;;3.95;1.80;;;;;;;5.90;100.00;92775.59;5040065;28;20035;-68
2023/04/01 08:43:41;;;;;;;3.30;1.83;;;;;;;5.75;100.00;92774.25;5040045;28;20371;-66
2023/04/01 08:46:38;;;;;;;2.85;1.55;;;;;;;5.86;100.00;92785.00;5046634;28;20624;-64
2023/04/01 08:49:09;;;;;;;4.85;3.67;;;;;;;6.23;100.00;92775.09;5041496;28;20048;-66
2023/04/01 08:52:24;;;;;;;2.80;1.23;;;;;;;6.22;100.00;92771.59;5039722;28;20711;-66
2023/04/01 08:55:02;;;;;;;2.92;1.70;;;;;;;6.15;100.00;92782.59;5016356;28;20914;-68
2023/04/01 08:58:07;;;;;;;2.43;1.53;;;;;;;6.08;100.00;92769.88;5033994;28;20044;-68
2023/04/01 09:00:43;;;;;;;4.80;2.30;;;;;;;6.03;100.00;92772.28;5018426;28;21537;-70
2023/04/01 09:03:32;;;;;;;5.93;2.70;;;;;;;6.22;100.00;92777.03;5033675;28;20394;-68
2023/04/01 09:06:17;;;;;;;8.68;4.35;;;;;;;6.00;100.00;92774.66;5020566;28;20044;-64
2023/04/01 09:09:25;;;;;;;4.20;2.10;;;;;;;6.20;100.00;92782.13;5018110;28;20868;-64
2023/04/01 09:12:22;;;;;;;9.80;5.10;;;;;;;6.11;100.00;92777.19;4988315;28;21096;-64
2023/04/01 09:15:10;;;;;;;2.45;1.25;;;;;;;5.89;100.00;92776.75;5038372;28;20525;-68
2023/04/01 09:18:03;;;;;;;5.78;3.47;;;;;;;5.99;100.00;92788.69;5047809;28;20191;-67
2023/04/01 09:21:04;;;;;;;2.33;1.23;;;;;;;5.75;100.00;92787.88;5048233;28;20039;-69
2023/04/01 09:24:08;;;;;;;2.40;1.60;;;;;;;5.65;100.00;92799.69;5048045;28;20045;-68
2023/04/01 09:26:57;;;;;;;4.77;3.20;;;;;;;5.66;100.00;92788.41;5047041;28;20432;-71
2023/04/01 09:29:54;;;;;;;3.92;2.80;;;;;;;5.59;100.00;92789.28;5047702;28;20681;-69
2023/04/01 09:32:54;;;;;;;1.83;1.00;;;;;;;5.81;100.00;92797.09;5047890;28;20041;-68
2023/04/01 09:35:41;;;;;;;2.55;1.23;;;;;;;5.79;100.00;92794.03;5028081;28;20033;-69
2023/04/01 09:38:08;;;;;;;1.80;1.00;;;;;;;5.81;100.00;92799.84;5036097;28;20097;-67
2023/04/01 09:40:40;;;;;;;1.93;1.10;;;;;;;5.90;100.00;92804.78;5068386;28;20041;-68
2023/04/01 09:43:25;;;;;;;1.92;1.00;;;;;;;5.87;100.00;92802.88;5068279;28;20097;-68
2023/04/01 09:46:06;;;;;;;3.15;1.33;;;;;;;5.92;100.00;92802.41;5065903;28;20082;-68
2023/04/01 09:48:52;;;;;;;2.90;1.95;;;;;;;5.98;100.00;92806.22;5067413;28;21422;-68
2023/04/01 09:51:51;;;;;;;4.28;2.50;;;;;;;6.17;100.00;92802.78;5057691;28;20049;-68
2023/04/01 09:54:29;;;;;;;3.07;1.70;;;;;;;5.99;100.00;92796.84;5051632;28;20096;-68
2023/04/01 09:57:07;;;;;;;3.35;1.80;;;;;;;6.12;100.00;92797.06;5051931;28;20037;-68
2023/04/01 10:00:10;;;;;;;2.20;1.20;;;;;;;6.09;100.00;92795.91;5051032;28;20933;-68
2023/04/01 10:03:19;;;;;;;2.42;1.20;;;;;;;6.03;100.00;92794.84;5051043;28;20367;-69
2023/04/01 10:05:51;;;;;;;2.30;1.30;;;;;;;6.31;100.00;92801.78;5043092;28;20669;-70
2023/04/01 10:09:02;;;;;;;2.43;0.90;;;;;;;6.35;100.00;92799.00;5051204;28;20390;-68
2023/04/01 10:12:14;;;;;;;2.17;0.90;;;;;;;6.55;100.00;92802.53;5051139;28;20037;-66
2023/04/01 10:15:05;;;;;;;1.90;1.00;;;;;;;6.30;100.00;92816.59;5034860;28;20978;-67
2023/04/01 10:18:04;;;;;;;3.13;0.93;;;;;;;6.27;100.00;92822.88;5050841;28;20043;-67
2023/04/01 10:20:49;;;;;;;2.00;1.20;;;;;;;6.51;100.00;92807.28;5019354;28;20123;-67
2023/04/01 10:23:43;;;;;;;1.90;1.10;;;;;;;6.66;100.00;92799.63;5050617;28;20443;-67
2023/04/01 10:26:39;;;;;;;1.92;0.80;;;;;;;6.39;100.00;92816.81;5050190;28;20037;-65
2023/04/01 10:29:51;;;;;;;1.63;0.75;;;;;;;6.38;100.00;92811.81;5040029;28;20041;-63
2023/04/01 10:32:26;;;;;;;2.00;1.27;;;;;;;6.39;100.00;92803.19;5047285;28;20174;-65
2023/04/01 10:35:20;;;;;;;2.47;1.50;;;;;;;6.55;100.00;92802.53;5050680;28;20040;-66
2023/04/01 10:38:40;;;;;;;2.07;1.00;;;;;;;6.58;100.00;92806.41;5037721;28;20760;-65
2023/04/01 10:41:16;;;;;;;2.30;0.98;;;;;;;6.62;100.00;92801.66;4964495;28;21692;-66
2023/04/01 10:44:20;;;;;;;1.95;0.90;;;;;;;6.49;100.00;92806.91;5037017;28;21558;-66
2023/04/01 10:47:05;;;;;;;2.00;0.88;;;;;;;6.48;100.00;92812.78;5029834;28;20825;-66
2023/04/01 10:49:32;;;;;;;2.45;0.88;;;;;;;6.38;100.00;92809.06;5029951;28;20091;-66
2023/04/01 10:52:17;;;;;;;1.53;0.60;;;;;;;6.27;100.00;92811.19;5030060;28;20049;-66
2023/04/01 10:55:04;;;;;;;1.70;0.77;;;;;;;6.37;100.00;92816.47;5029530;28;20482;-66
2023/04/01 10:58:03;;;;;;;2.28;1.00;;;;;;;6.60;100.00;92812.97;5030088;28;20037;-66
2023/04/01 11:01:05;;;;;;;2.00;0.90;;;;;;;6.54;100.00;92817.34;5029662;28;20047;-68
2023/04/01 11:03:40;;;;;;;1.70;0.80;;;;;;;6.50;100.00;92804.97;5026781;28;20049;-68
2023/04/01 11:06:35;;;;;;;2.10;0.90;;;;;;;6.56;100.00;92809.53;5018646;28;20064;-66
2023/04/01 11:09:04;;;;;;;3.28;0.93;;;;;;;6.77;100.00;92813.03;5019901;28;21266;-66
2023/04/01 11:12:08;;;;;;;2.05;1.00;;;;;;;6.93;100.00;92804.94;5019048;28;20037;-65
2023/04/01 11:14:59;;;;;;;1.95;0.98;;;;;;;7.05;100.00;92805.50;5022967;28;20417;-67
2023/04/01 11:18:08;;;;;;;2.00;1.00;;;;;;;7.16;100.00;92811.50;5014953;28;20392;-68
2023/04/01 11:20:42;;;;;;;2.20;1.20;;;;;;;7.41;100.00;92805.53;5015841;28;20991;-72
2023/04/01 11:23:18;;;;;;;2.28;1.25;;;;;;;7.11;100.00;92798.38;5022275;28;20094;-66
2023/04/01 11:26:01;;;;;;;2.20;1.00;;;;;;;7.38;100.00;92806.38;5023581;28;20049;-68
2023/04/01 11:29:03;;;;;;;1.70;0.75;;;;;;;7.45;100.00;92789.09;5023106;28;20083;-67
2023/04/01 11:31:37;;;;;;;2.30;1.40;;;;;;;7.56;100.00;92804.03;5020320;28;20462;-67
2023/04/01 11:34:22;;;;;;;2.50;0.97;;;;;;;8.20;100.00;92801.78;5020180;28;20053;-68
2023/04/01 11:36:59;;;;;;;2.03;0.80;;;;;;;8.28;100.00;92799.66;5019956;28;20070;-67
2023/04/01 11:39:29;;;;;;;1.90;1.20;;;;;;;8.14;100.00;92797.28;5021497;28;20041;-68
2023/04/01 11:42:26;;;;;;;1.95;0.75;;;;;;;7.92;100.00;92795.03;5018599;28;20405;-68
2023/04/01 11:45:07;;;;;;;2.35;1.02;;;;;;;7.96;100.00;92825.00;5025193;28;21789;-68
2023/04/01 11:47:39;;;;;;;2.53;1.00;;;;;;;8.31;100.00;92806.22;5021905;28;21863;-68
2023/04/01 11:50:28;;;;;;;1.90;1.05;;;;;;;8.44;100.00;92809.84;5031637;28;20040;-65
2023/04/01 11:53:15;;;;;;;1.90;1.00;;;;;;;9.11;100.00;92811.22;5023980;28;20053;-68
2023/04/01 11:56:07;;;;;;;1.77;0.80;;;;;;;9.23;100.00;92817.94;5038648;28;20041;-67
2023/04/01 11:58:41;;;;;;;1.70;0.80;;;;;;;8.94;100.00;92805.06;5020318;28;21734;-68
2023/04/01 12:01:17;;;;;;;1.77;0.90;;;;;;;9.02;100.00;92833.00;5019671;28;20041;-64
2023/04/01 12:03:47;;;;;;;2.42;0.95;;;;;;;8.74;100.00;92835.28;5019468;28;21103;-67
2023/04/01 12:06:19;;;;;;;2.67;0.90;;;;;;;8.82;100.00;92825.69;5019307;28;20037;-67
2023/04/01 12:08:56;;;;;;;2.47;0.63;;;;;;;8.75;100.00;92837.59;5020324;28;20048;-67
2023/04/01 12:12:05;;;;;;;2.88;1.00;;;;;;;8.95;100.00;92834.72;5018673;28;20033;-67
2023/04/01 12:14:54;;;;;;;1.60;0.70;;;;;;;8.98;100.00;92831.09;5017691;28;20033;-68
2023/04/01 12:17:30;;;;;;;1.90;0.85;;;;;;;9.02;100.00;92836.50;5036672;28;20115;-67
2023/04/01 12:20:28;;;;;;;1.77;0.77;;;;;;;9.03;100.00;92831.78;5035301;28;20045;-68